createdAt,value
2017-01-06T00:00:27.696Z,-0.52
2017-01-06T00:01:28.199Z,-0.68
2017-01-06T00:02:27.863Z,-0.61
2017-01-06T00:03:28.024Z,-0.47
2017-01-06T00:04:28.391Z,-0.56
2017-01-06T00:05:27.742Z,-0.61
2017-01-06T00:06:28.314Z,-0.57
2017-01-06T00:07:27.359Z,-0.64
2017-01-06T00:08:27.763Z,-0.57
2017-01-06T00:09:27.771Z,-0.57
2017-01-06T00:10:27.804Z,-0.5
2017-01-06T00:11:27.821Z,-0.53
2017-01-06T00:12:27.407Z,-0.59
2017-01-06T00:13:27.420Z,-0.61
2017-01-06T00:14:27.827Z,-0.54
2017-01-06T00:15:27.830Z,-0.65
2017-01-06T00:16:27.843Z,-0.65
2017-01-06T00:17:27.447Z,-0.68
2017-01-06T00:18:28.254Z,-0.77
2017-01-06T00:19:27.868Z,-0.8
2017-01-06T00:20:27.880Z,-0.7
2017-01-06T00:21:27.482Z,-0.93
2017-01-06T00:22:28.292Z,-0.96
2017-01-06T00:23:28.306Z,-0.85
2017-01-06T00:24:27.906Z,-0.83
2017-01-06T00:25:27.922Z,-0.75
2017-01-06T00:26:27.926Z,-0.89
2017-01-06T00:27:27.934Z,-0.74
2017-01-06T00:28:27.546Z,-0.77
2017-01-06T00:29:27.955Z,-0.86
2017-01-06T00:30:27.964Z,-0.72
2017-01-06T00:31:27.969Z,-0.78
2017-01-06T00:32:28.378Z,-0.77
2017-01-06T00:33:27.987Z,-0.72
2017-01-06T00:34:28.012Z,-0.65
2017-01-06T00:35:28.006Z,-0.65
2017-01-06T00:36:28.039Z,-0.75
2017-01-06T00:37:28.425Z,-0.67
2017-01-06T00:38:28.441Z,-0.71
2017-01-06T00:39:28.043Z,-0.75
2017-01-06T00:40:27.685Z,-0.71
2017-01-06T00:41:28.485Z,-0.78
2017-01-06T00:42:27.673Z,-0.67
2017-01-06T00:43:27.684Z,-0.72
2017-01-06T00:44:28.493Z,-0.64
2017-01-06T00:45:28.091Z,-0.67
2017-01-06T00:46:27.707Z,-0.77
2017-01-06T00:47:28.558Z,-0.78
2017-01-06T00:48:28.528Z,-0.72
2017-01-06T00:49:27.737Z,-0.83
2017-01-06T00:50:28.138Z,-0.72
2017-01-06T00:51:28.147Z,-0.62
2017-01-06T00:52:28.156Z,-0.7
2017-01-06T00:53:28.165Z,-0.65
2017-01-06T00:54:28.174Z,-0.7
2017-01-06T00:55:28.585Z,-0.54
2017-01-06T00:56:27.800Z,-0.59
2017-01-06T00:57:28.199Z,-0.7
2017-01-06T00:58:28.210Z,-0.54
2017-01-06T00:59:28.218Z,-0.57
2017-01-06T01:00:28.223Z,-0.57
2017-01-06T01:01:28.232Z,-0.68
2017-01-06T01:02:28.257Z,-0.82
2017-01-06T01:03:28.652Z,-0.75
2017-01-06T01:04:28.264Z,-0.74
2017-01-06T01:05:28.269Z,-0.85
2017-01-06T01:06:28.281Z,-0.77
2017-01-06T01:07:27.891Z,-0.72
2017-01-06T01:08:28.699Z,-0.78
2017-01-06T01:09:28.752Z,-0.77
2017-01-06T01:10:28.716Z,-0.77
2017-01-06T01:11:28.326Z,-0.75
2017-01-06T01:12:27.935Z,-0.77
2017-01-06T01:13:28.484Z,-0.8
2017-01-06T01:14:29.308Z,-0.83
2017-01-06T01:15:28.737Z,-0.75
2017-01-06T01:16:28.787Z,-0.83
2017-01-06T01:17:28.381Z,-1.02
2017-01-06T01:18:28.784Z,-1.26
2017-01-06T01:19:28.395Z,-1.23
2017-01-06T01:20:28.408Z,-1.19
2017-01-06T01:21:28.412Z,-1.35
2017-01-06T01:22:28.820Z,-1.27
2017-01-06T01:23:28.452Z,-1.35
2017-01-06T01:24:28.463Z,-1.26
2017-01-06T01:25:28.847Z,-1.23
2017-01-06T01:26:28.855Z,-1.22
2017-01-06T01:27:28.864Z,-1.23
2017-01-06T01:28:28.472Z,-1.25
2017-01-06T01:29:28.083Z,-1.25
2017-01-06T01:30:28.494Z,-1.27
2017-01-06T01:31:28.497Z,-1.25
2017-01-06T01:32:28.507Z,-1.3
2017-01-06T01:33:28.920Z,-1.25
2017-01-06T01:34:28.532Z,-1.22
2017-01-06T01:35:28.564Z,-1.23
2017-01-06T01:36:28.946Z,-1.32
2017-01-06T01:37:28.552Z,-1.41
2017-01-06T01:38:28.162Z,-1.41
2017-01-06T01:39:28.967Z,-1.35
2017-01-06T01:40:28.576Z,-1.3
2017-01-06T01:41:28.982Z,-1.26
2017-01-06T01:42:28.599Z,-1.29
2017-01-06T01:43:28.603Z,-1.19
2017-01-06T01:44:28.610Z,-1.35
2017-01-06T01:45:28.620Z,-1.43
2017-01-06T01:46:28.231Z,-1.38
2017-01-06T01:47:28.633Z,-1.32
2017-01-06T01:48:28.643Z,-1.29
2017-01-06T01:49:28.253Z,-1.33
2017-01-06T01:50:28.660Z,-1.35
2017-01-06T01:51:28.677Z,-1.3
2017-01-06T01:52:28.278Z,-1.22
2017-01-06T01:53:28.287Z,-1.4
2017-01-06T01:54:28.693Z,-1.37
2017-01-06T01:55:28.302Z,-1.32
2017-01-06T01:56:28.317Z,-1.27
2017-01-06T01:57:29.123Z,-1.33
2017-01-06T01:58:28.327Z,-1.32
2017-01-06T01:59:28.737Z,-1.5
2017-01-06T02:01:19.728Z,-1.51
2017-01-06T02:01:28.894Z,-1.65
2017-01-06T02:03:14.558Z,-1.61
2017-01-06T02:03:29.290Z,-1.56
2017-01-06T02:04:29.304Z,-1.58
2017-01-06T02:05:29.306Z,-1.61
2017-01-06T02:06:28.914Z,-1.54
2017-01-06T02:07:29.326Z,-1.51
2017-01-06T02:08:29.331Z,-1.48
2017-01-06T02:09:29.340Z,-1.53
2017-01-06T02:10:29.743Z,-1.54
2017-01-06T02:11:28.957Z,-1.5
2017-01-06T02:12:28.964Z,-1.59
2017-01-06T02:13:29.380Z,-1.51
2017-01-06T02:14:29.778Z,-1.44
2017-01-06T02:15:28.990Z,-1.35
2017-01-06T02:16:29.795Z,-1.5
2017-01-06T02:17:29.404Z,-1.62
2017-01-06T02:18:29.817Z,-1.61
2017-01-06T02:19:29.426Z,-1.5
2017-01-06T02:20:29.030Z,-1.35
2017-01-06T02:21:29.442Z,-1.4
2017-01-06T02:22:29.447Z,-1.41
2017-01-06T02:23:29.855Z,-1.37
2017-01-06T02:24:29.462Z,-1.51
2017-01-06T02:25:29.473Z,-1.58
2017-01-06T02:26:29.479Z,-1.62
2017-01-06T02:27:29.510Z,-1.71
2017-01-06T02:28:29.096Z,-1.65
2017-01-06T02:29:29.904Z,-1.72
2017-01-06T02:30:29.912Z,-1.74
2017-01-06T02:31:29.524Z,-1.71
2017-01-06T02:32:29.129Z,-1.76
2017-01-06T02:33:30.136Z,-1.68
2017-01-06T02:34:29.554Z,-1.74
2017-01-06T02:35:29.159Z,-1.62
2017-01-06T02:36:29.962Z,-1.79
2017-01-06T02:37:29.574Z,-1.94
2017-01-06T02:38:29.983Z,-1.95
2017-01-06T02:39:29.985Z,-1.87
2017-01-06T02:40:29.995Z,-1.77
2017-01-06T02:41:29.811Z,-1.84
2017-01-06T02:42:30.012Z,-1.68
2017-01-06T02:43:29.630Z,-1.74
2017-01-06T02:44:29.637Z,-1.76
2017-01-06T02:45:29.248Z,-1.76
2017-01-06T02:46:29.642Z,-1.8
2017-01-06T02:47:29.254Z,-1.89
2017-01-06T02:48:29.261Z,-1.95
2017-01-06T02:49:29.668Z,-1.82
2017-01-06T02:50:29.688Z,-1.82
2017-01-06T02:51:29.684Z,-1.79
2017-01-06T02:52:29.313Z,-1.83
2017-01-06T02:53:29.702Z,-1.84
2017-01-06T02:54:29.309Z,-1.82
2017-01-06T02:55:29.348Z,-1.76
2017-01-06T02:56:29.724Z,-1.79
2017-01-06T02:57:29.752Z,-1.89
2017-01-06T02:58:29.738Z,-1.8
2017-01-06T02:59:29.750Z,-1.83
2017-01-06T03:00:29.358Z,-1.74
2017-01-06T03:01:29.767Z,-1.66
2017-01-06T03:02:29.777Z,-1.79
2017-01-06T03:03:29.383Z,-1.74
2017-01-06T03:04:29.388Z,-1.65
2017-01-06T03:05:29.799Z,-1.71
2017-01-06T03:06:29.417Z,-1.74
2017-01-06T03:07:29.413Z,-1.79
2017-01-06T03:08:30.220Z,-1.76
2017-01-06T03:09:29.827Z,-1.82
2017-01-06T03:10:29.836Z,-2.01
2017-01-06T03:11:29.443Z,-2.26
2017-01-06T03:12:29.853Z,-2.12
2017-01-06T03:13:30.257Z,-1.95
2017-01-06T03:14:29.867Z,-1.94
2017-01-06T03:15:29.475Z,-2.18
2017-01-06T03:16:29.882Z,-2.15
2017-01-06T03:17:29.894Z,-2.15
2017-01-06T03:18:29.501Z,-2.22
2017-01-06T03:19:29.508Z,-2.13
2017-01-06T03:20:30.518Z,-2.04
2017-01-06T03:21:29.526Z,-2.12
2017-01-06T03:22:29.938Z,-2.12
2017-01-06T03:23:30.340Z,-2.13
2017-01-06T03:24:29.948Z,-2.34
2017-01-06T03:25:29.959Z,-2.3
2017-01-06T03:26:30.023Z,-2.26
2017-01-06T03:27:30.369Z,-2.19
2017-01-06T03:28:29.578Z,-2.35
2017-01-06T03:29:29.587Z,-2.42
2017-01-06T03:30:29.993Z,-2.26
2017-01-06T03:31:30.399Z,-2.25
2017-01-06T03:32:30.032Z,-2.28
2017-01-06T03:33:30.418Z,-2.22
2017-01-06T03:34:30.036Z,-2.3
2017-01-06T03:35:30.430Z,-2.34
2017-01-06T03:36:30.037Z,-2.42
2017-01-06T03:37:30.101Z,-2.3
2017-01-06T03:38:30.454Z,-2.32
2017-01-06T03:39:30.466Z,-2.26
2017-01-06T03:40:29.676Z,-2.38
2017-01-06T03:41:30.080Z,-2.28
2017-01-06T03:42:29.688Z,-2.42
2017-01-06T03:43:30.091Z,-2.5
2017-01-06T03:44:30.500Z,-2.56
2017-01-06T03:45:29.719Z,-2.56
2017-01-06T03:46:30.130Z,-2.45
2017-01-06T03:47:29.740Z,-2.71
2017-01-06T03:48:30.140Z,-2.76
2017-01-06T03:49:30.546Z,-2.73
2017-01-06T03:50:30.155Z,-2.63
2017-01-06T03:51:30.157Z,-2.58
2017-01-06T03:52:30.184Z,-2.53
2017-01-06T03:53:30.613Z,-2.62
2017-01-06T03:54:30.175Z,-2.47
2017-01-06T03:55:30.181Z,-2.5
2017-01-06T03:56:30.189Z,-2.53
2017-01-06T03:57:30.599Z,-2.5
2017-01-06T03:58:30.231Z,-2.56
2017-01-06T03:59:30.214Z,-2.55
2017-01-06T04:00:30.223Z,-2.6
2017-01-06T04:01:29.828Z,-2.62
2017-01-06T04:02:30.230Z,-2.66
2017-01-06T04:03:29.845Z,-2.69
2017-01-06T04:04:30.651Z,-2.62
2017-01-06T04:05:30.261Z,-2.59
2017-01-06T04:06:30.266Z,-2.48
2017-01-06T04:07:29.876Z,-2.56
2017-01-06T04:08:30.679Z,-2.42
2017-01-06T04:09:29.889Z,-2.55
2017-01-06T04:10:29.895Z,-2.52
2017-01-06T04:11:30.701Z,-2.59
2017-01-06T04:12:30.549Z,-2.55
2017-01-06T04:13:30.319Z,-2.5
2017-01-06T04:14:30.332Z,-2.5
2017-01-06T04:15:30.337Z,-2.52
2017-01-06T04:16:30.346Z,-2.48
2017-01-06T04:17:30.751Z,-2.47
2017-01-06T04:18:30.359Z,-2.56
2017-01-06T04:19:30.369Z,-2.66
2017-01-06T04:20:30.429Z,-2.74
2017-01-06T04:21:30.780Z,-2.7
2017-01-06T04:22:29.985Z,-2.8
2017-01-06T04:23:30.399Z,-2.65
2017-01-06T04:24:30.401Z,-2.7
2017-01-06T04:25:30.414Z,-2.74
2017-01-06T04:26:30.817Z,-2.69
2017-01-06T04:27:30.026Z,-2.69
2017-01-06T04:28:30.093Z,-2.88
2017-01-06T04:29:30.439Z,-2.94
2017-01-06T04:30:30.448Z,-3.01
2017-01-06T04:31:30.456Z,-3.2
2017-01-06T04:32:30.462Z,-3.13
2017-01-06T04:33:30.485Z,-3.19
2017-01-06T04:34:30.476Z,-3.15
2017-01-06T04:35:30.480Z,-3.12
2017-01-06T04:36:30.492Z,-3.15
2017-01-06T04:37:30.100Z,-3.09
2017-01-06T04:38:30.665Z,-3.16
2017-01-06T04:39:30.115Z,-2.84
2017-01-06T04:40:30.523Z,-2.94
2017-01-06T04:41:30.533Z,-2.83
2017-01-06T04:42:30.533Z,-2.99
2017-01-06T04:43:30.142Z,-2.92
2017-01-06T04:44:30.958Z,-3.07
2017-01-06T04:45:30.574Z,-3.09
2017-01-06T04:46:30.567Z,-3.09
2017-01-06T04:47:30.200Z,-3.13
2017-01-06T04:48:30.577Z,-3.09
2017-01-06T04:49:30.584Z,-3.09
2017-01-06T04:50:30.592Z,-3.09
2017-01-06T04:51:30.203Z,-2.97
2017-01-06T04:52:30.608Z,-2.92
2017-01-06T04:53:30.220Z,-2.74
2017-01-06T04:54:30.625Z,-2.77
2017-01-06T04:55:31.033Z,-2.74
2017-01-06T04:56:30.246Z,-2.78
2017-01-06T04:57:30.644Z,-2.69
2017-01-06T04:58:30.250Z,-2.73
2017-01-06T04:59:30.659Z,-2.71
2017-01-06T05:00:30.664Z,-2.62
2017-01-06T05:01:30.684Z,-2.66
2017-01-06T05:02:30.297Z,-2.7
2017-01-06T05:03:30.684Z,-2.65
2017-01-06T05:04:30.697Z,-2.66
2017-01-06T05:05:31.106Z,-2.62
2017-01-06T05:06:30.712Z,-2.71
2017-01-06T05:07:31.144Z,-2.77
2017-01-06T05:08:30.748Z,-2.8
2017-01-06T05:09:31.130Z,-2.74
2017-01-06T05:10:30.738Z,-2.88
2017-01-06T05:11:30.347Z,-2.91
2017-01-06T05:12:31.772Z,-2.94
2017-01-06T05:13:30.772Z,-2.81
2017-01-06T05:14:30.367Z,-2.78
2017-01-06T05:15:30.377Z,-2.89
2017-01-06T05:16:31.179Z,-2.76
2017-01-06T05:17:30.790Z,-2.81
2017-01-06T05:18:31.200Z,-2.78
2017-01-06T05:19:30.803Z,-3.01
2017-01-06T05:20:30.810Z,-3.17
2017-01-06T05:21:30.817Z,-3.2
2017-01-06T05:22:30.832Z,-3.28
2017-01-06T05:23:30.829Z,-3.13
2017-01-06T05:24:30.841Z,-3.06
2017-01-06T05:25:31.243Z,-3.12
2017-01-06T05:26:30.454Z,-3.2
2017-01-06T05:27:30.859Z,-3.15
2017-01-06T05:28:30.468Z,-3.1
2017-01-06T05:29:30.486Z,-3.01
2017-01-06T05:30:30.878Z,-2.98
2017-01-06T05:31:30.886Z,-2.92
2017-01-06T05:32:31.295Z,-2.97
2017-01-06T05:33:30.505Z,-2.89
2017-01-06T05:34:30.913Z,-2.95
2017-01-06T05:35:30.918Z,-2.95
2017-01-06T05:36:30.928Z,-2.83
2017-01-06T05:37:30.929Z,-2.94
2017-01-06T05:38:31.334Z,-2.78
2017-01-06T05:39:30.946Z,-2.89
2017-01-06T05:40:30.551Z,-2.88
2017-01-06T05:41:30.955Z,-2.88
2017-01-06T05:42:30.966Z,-2.88
2017-01-06T05:43:30.970Z,-2.74
2017-01-06T05:44:30.580Z,-2.83
2017-01-06T05:45:30.592Z,-2.89
2017-01-06T05:46:30.998Z,-2.76
2017-01-06T05:47:30.609Z,-2.78
2017-01-06T05:48:30.612Z,-2.86
2017-01-06T05:49:30.617Z,-2.78
2017-01-06T05:50:30.624Z,-2.92
2017-01-06T05:51:30.635Z,-2.88
2017-01-06T05:52:31.036Z,-2.78
2017-01-06T05:53:30.647Z,-2.91
2017-01-06T05:54:30.651Z,-2.94
2017-01-06T05:55:31.061Z,-2.88
2017-01-06T05:56:31.064Z,-2.99
2017-01-06T05:57:31.470Z,-2.92
2017-01-06T05:58:31.082Z,-2.89
2017-01-06T05:59:31.086Z,-2.78
2017-01-06T06:00:31.094Z,-2.8
2017-01-06T06:01:30.702Z,-2.97
2017-01-06T06:02:31.113Z,-2.94
2017-01-06T06:03:31.518Z,-2.97
2017-01-06T06:04:30.731Z,-2.88
2017-01-06T06:05:30.745Z,-2.89
2017-01-06T06:06:31.137Z,-2.99
2017-01-06T06:07:31.549Z,-2.92
2017-01-06T06:08:30.751Z,-2.94
2017-01-06T06:09:31.557Z,-2.99
2017-01-06T06:10:31.197Z,-2.92
2017-01-06T06:11:31.569Z,-3.02
2017-01-06T06:12:31.577Z,-3.01
2017-01-06T06:13:31.188Z,-3.01
2017-01-06T06:14:31.596Z,-2.98
2017-01-06T06:15:31.207Z,-2.97
2017-01-06T06:16:31.609Z,-2.92
2017-01-06T06:17:30.815Z,-2.91
2017-01-06T06:18:31.220Z,-2.94
2017-01-06T06:19:31.226Z,-2.98
2017-01-06T06:20:31.633Z,-2.97
2017-01-06T06:21:31.660Z,-3.01
2017-01-06T06:22:31.273Z,-3.09
2017-01-06T06:23:31.253Z,-3.02
2017-01-06T06:24:31.295Z,-3.16
2017-01-06T06:25:31.267Z,-3.19
2017-01-06T06:26:31.277Z,-3.16
2017-01-06T06:27:31.680Z,-3.19
2017-01-06T06:28:31.294Z,-3.09
2017-01-06T06:29:30.896Z,-3.16
2017-01-06T06:30:31.326Z,-3.2
2017-01-06T06:31:31.325Z,-3.17
2017-01-06T06:32:31.333Z,-3.12
2017-01-06T06:33:31.329Z,-3.06
2017-01-06T06:34:30.932Z,-3.06
2017-01-06T06:35:31.340Z,-3.01
2017-01-06T06:36:31.343Z,-2.99
2017-01-06T06:37:30.964Z,-3.01
2017-01-06T06:38:30.962Z,-2.98
2017-01-06T06:39:31.364Z,-3.01
2017-01-06T06:40:31.369Z,-2.98
2017-01-06T06:41:31.378Z,-2.86
2017-01-06T06:42:31.782Z,-2.95
2017-01-06T06:43:30.992Z,-2.89
2017-01-06T06:44:31.799Z,-2.94
2017-01-06T06:45:31.407Z,-2.92
2017-01-06T06:46:31.017Z,-2.86
2017-01-06T06:47:31.466Z,-2.89
2017-01-06T06:48:31.428Z,-2.88
2017-01-06T06:49:31.441Z,-2.95
2017-01-06T06:50:31.841Z,-2.92
2017-01-06T06:51:31.473Z,-2.91
2017-01-06T06:52:31.457Z,-2.81
2017-01-06T06:53:31.463Z,-2.92
2017-01-06T06:54:31.471Z,-3.06
2017-01-06T06:55:31.892Z,-2.91
2017-01-06T06:56:31.089Z,-2.94
2017-01-06T06:57:31.091Z,-2.83
2017-01-06T06:58:31.103Z,-2.89
2017-01-06T06:59:31.903Z,-2.97
2017-01-06T07:00:31.152Z,-3.1
2017-01-06T07:01:31.521Z,-3.09
2017-01-06T07:02:31.125Z,-3.09
2017-01-06T07:03:31.130Z,-2.99
2017-01-06T07:04:31.936Z,-2.95
2017-01-06T07:05:31.550Z,-2.97
2017-01-06T07:06:31.167Z,-3.02
2017-01-06T07:07:31.178Z,-3.2
2017-01-06T07:08:31.968Z,-3.19
2017-01-06T07:09:31.573Z,-3.12
2017-01-06T07:10:31.587Z,-3.12
2017-01-06T07:11:31.585Z,-3.06
2017-01-06T07:12:31.992Z,-2.97
2017-01-06T07:13:31.999Z,-2.95
2017-01-06T07:14:31.604Z,-2.94
2017-01-06T07:15:32.017Z,-2.94
2017-01-06T07:16:32.076Z,-2.91
2017-01-06T07:17:31.640Z,-2.89
2017-01-06T07:18:31.638Z,-2.94
2017-01-06T07:19:31.641Z,-2.89
2017-01-06T07:20:31.249Z,-2.94
2017-01-06T07:21:31.278Z,-2.94
2017-01-06T07:22:31.265Z,-2.98
2017-01-06T07:23:31.272Z,-2.89
2017-01-06T07:24:31.687Z,-2.89
2017-01-06T07:25:31.284Z,-2.84
2017-01-06T07:26:31.293Z,-2.86
2017-01-06T07:27:32.099Z,-2.88
2017-01-06T07:28:31.703Z,-2.76
2017-01-06T07:29:31.711Z,-2.69
2017-01-06T07:30:31.323Z,-2.63
2017-01-06T07:31:31.727Z,-2.69
2017-01-06T07:32:31.734Z,-2.7
2017-01-06T07:33:31.353Z,-2.83
2017-01-06T07:34:31.762Z,-2.84
2017-01-06T07:35:32.156Z,-2.81
2017-01-06T07:36:31.762Z,-2.8
2017-01-06T07:37:31.370Z,-2.71
2017-01-06T07:38:31.775Z,-2.65
2017-01-06T07:39:31.384Z,-2.8
2017-01-06T07:40:31.392Z,-2.77
2017-01-06T07:41:31.799Z,-2.71
2017-01-06T07:42:31.809Z,-2.8
2017-01-06T07:43:31.814Z,-2.6
2017-01-06T07:44:31.823Z,-2.73
2017-01-06T07:45:31.830Z,-2.66
2017-01-06T07:46:31.835Z,-2.52
2017-01-06T07:47:31.845Z,-2.47
2017-01-06T07:48:31.451Z,-2.63
2017-01-06T07:49:31.860Z,-2.5
2017-01-06T07:50:31.862Z,-2.6
2017-01-06T07:51:31.872Z,-2.53
2017-01-06T07:52:32.277Z,-2.47
2017-01-06T07:53:32.290Z,-2.53
2017-01-06T07:54:32.293Z,-2.62
2017-01-06T07:55:32.300Z,-2.71
2017-01-06T07:56:32.309Z,-2.69
2017-01-06T07:57:31.911Z,-2.69
2017-01-06T07:58:32.316Z,-2.84
2017-01-06T07:59:31.926Z,-2.74
2017-01-06T08:00:31.543Z,-2.95
2017-01-06T08:01:31.545Z,-2.89
2017-01-06T08:02:31.555Z,-2.73
2017-01-06T08:03:31.558Z,-2.8
2017-01-06T08:04:31.967Z,-2.65
2017-01-06T08:05:31.573Z,-2.6
2017-01-06T08:06:31.583Z,-2.55
2017-01-06T08:07:31.987Z,-2.6
2017-01-06T08:08:31.996Z,-2.5
2017-01-06T08:09:32.006Z,-2.53
2017-01-06T08:10:32.408Z,-2.65
2017-01-06T08:11:32.418Z,-2.55
2017-01-06T08:12:31.627Z,-2.55
2017-01-06T08:13:32.032Z,-2.55
2017-01-06T08:14:32.051Z,-2.5
2017-01-06T08:15:32.045Z,-2.59
2017-01-06T08:16:32.058Z,-2.73
2017-01-06T08:17:31.663Z,-3.02
2017-01-06T08:18:32.071Z,-3.02
2017-01-06T08:19:32.476Z,-3.15
2017-01-06T08:20:32.088Z,-3.12
2017-01-06T08:21:31.716Z,-3.16
2017-01-06T08:22:32.499Z,-2.98
2017-01-06T08:23:32.109Z,-2.73
2017-01-06T08:24:31.742Z,-2.58
2017-01-06T08:25:32.127Z,-2.52
2017-01-06T08:26:32.141Z,-2.6
2017-01-06T08:27:32.142Z,-2.48
2017-01-06T08:28:32.149Z,-2.45
2017-01-06T08:29:32.152Z,-2.52
2017-01-06T08:30:32.559Z,-2.52
2017-01-06T08:31:31.770Z,-2.58
2017-01-06T08:32:32.193Z,-2.77
2017-01-06T08:33:32.584Z,-2.59
2017-01-06T08:34:31.792Z,-2.42
2017-01-06T08:35:32.599Z,-2.52
2017-01-06T08:36:32.218Z,-2.6
2017-01-06T08:37:32.209Z,-2.58
2017-01-06T08:38:31.825Z,-2.5
2017-01-06T08:39:31.831Z,-2.52
2017-01-06T08:40:32.241Z,-2.59
2017-01-06T08:41:32.646Z,-2.62
2017-01-06T08:42:32.655Z,-2.45
2017-01-06T08:43:32.660Z,-2.32
2017-01-06T08:44:32.266Z,-2.41
2017-01-06T08:45:31.878Z,-2.28
2017-01-06T08:46:32.353Z,-2.21
2017-01-06T08:47:31.892Z,-2.16
2017-01-06T08:48:32.696Z,-2.1
2017-01-06T08:49:32.321Z,-2.05
2017-01-06T08:50:32.316Z,-2.02
2017-01-06T08:51:32.324Z,-2.07
2017-01-06T08:52:32.329Z,-2.04
2017-01-06T08:53:31.937Z,-1.97
2017-01-06T08:54:32.363Z,-1.89
2017-01-06T08:55:32.352Z,-1.74
2017-01-06T08:56:31.964Z,-1.62
2017-01-06T08:57:32.376Z,-1.58
2017-01-06T08:58:31.976Z,-1.54
2017-01-06T08:59:32.385Z,-1.58
2017-01-06T09:00:31.994Z,-1.58
2017-01-06T09:01:32.800Z,-1.48
2017-01-06T09:02:32.008Z,-1.46
2017-01-06T09:03:32.029Z,-1.46
2017-01-06T09:04:32.029Z,-1.5
2017-01-06T09:05:32.044Z,-1.47
2017-01-06T09:06:32.841Z,-1.48
2017-01-06T09:07:32.047Z,-1.46
2017-01-06T09:08:32.865Z,-1.51
2017-01-06T09:09:32.466Z,-1.44
2017-01-06T09:10:32.470Z,-1.38
2017-01-06T09:11:32.481Z,-1.4
2017-01-06T09:12:32.489Z,-1.47
2017-01-06T09:13:32.096Z,-1.4
2017-01-06T09:14:32.506Z,-1.37
2017-01-06T09:15:32.915Z,-1.62
2017-01-06T09:16:32.518Z,-1.69
2017-01-06T09:17:32.128Z,-1.62
2017-01-06T09:18:32.554Z,-1.61
2017-01-06T09:19:32.150Z,-1.47
2017-01-06T09:20:32.153Z,-1.43
2017-01-06T09:21:32.571Z,-1.4
2017-01-06T09:22:32.170Z,-1.2
2017-01-06T09:23:32.975Z,-0.96
2017-01-06T09:24:32.189Z,-0.74
2017-01-06T09:25:32.989Z,-0.56
2017-01-06T09:26:33.002Z,-0.59
2017-01-06T09:27:32.209Z,-0.7
2017-01-06T09:28:32.637Z,-0.64
2017-01-06T09:29:32.630Z,-0.67
2017-01-06T09:30:32.637Z,-0.68
2017-01-06T09:31:32.246Z,-0.67
2017-01-06T09:32:33.054Z,-0.57
2017-01-06T09:33:33.057Z,-0.38
2017-01-06T09:34:33.088Z,-0.13
2017-01-06T09:35:33.076Z,0.22
2017-01-06T09:36:32.686Z,0.36
2017-01-06T09:37:32.700Z,0.58
2017-01-06T09:38:32.708Z,0.68
2017-01-06T09:39:33.115Z,0.8
2017-01-06T09:40:32.724Z,0.91
2017-01-06T09:41:32.336Z,1.14
2017-01-06T09:42:32.743Z,1.31
2017-01-06T09:43:32.756Z,1.59
2017-01-06T09:44:32.770Z,1.73
2017-01-06T09:45:32.381Z,1.91
2017-01-06T09:46:32.785Z,2.1
2017-01-06T09:47:32.801Z,2.25
2017-01-06T09:48:32.412Z,2.38
2017-01-06T09:49:33.220Z,2.62
2017-01-06T09:50:33.234Z,2.83
2017-01-06T09:51:32.846Z,3.01
2017-01-06T09:52:32.855Z,3.01
2017-01-06T09:53:33.296Z,3.08
2017-01-06T09:54:32.878Z,3.18
2017-01-06T09:55:32.895Z,3.08
2017-01-06T09:56:32.906Z,2.95
2017-01-06T09:57:32.916Z,2.9
2017-01-06T09:58:32.527Z,2.92
2017-01-06T09:59:32.945Z,3.07
2017-01-06T10:00:32.556Z,3.13
2017-01-06T10:01:32.966Z,3.13
2017-01-06T10:02:32.979Z,3.1
2017-01-06T10:03:32.994Z,3.03
2017-01-06T10:04:33.400Z,3.03
2017-01-06T10:05:33.020Z,3.04
2017-01-06T10:06:33.042Z,3.04
2017-01-06T10:07:33.441Z,2.8
2017-01-06T10:08:33.455Z,2.6
2017-01-06T10:09:33.064Z,2.25
2017-01-06T10:10:32.681Z,2.02
2017-01-06T10:11:32.699Z,2.13
2017-01-06T10:12:33.106Z,2.18
2017-01-06T10:13:48.011Z,2.28
2017-01-06T10:14:33.134Z,2.35
2017-01-06T10:15:33.548Z,2.57
2017-01-06T10:16:33.156Z,2.85
2017-01-06T10:17:32.771Z,2.9
2017-01-06T10:18:33.187Z,3
2017-01-06T10:19:33.598Z,3.1
2017-01-06T10:20:33.230Z,3.19
2017-01-06T10:21:32.844Z,3.31
2017-01-06T10:22:33.235Z,3.32
2017-01-06T10:23:33.246Z,3.32
2017-01-06T10:24:33.262Z,3.14
2017-01-06T10:25:32.879Z,3.04
2017-01-06T10:26:32.889Z,3.22
2017-01-06T10:27:33.698Z,3.51
2017-01-06T10:28:32.915Z,3.63
2017-01-06T10:29:33.738Z,3.63
2017-01-06T10:30:33.338Z,3.58
2017-01-06T10:31:33.780Z,3.69
2017-01-06T10:32:33.779Z,3.69
2017-01-06T10:33:33.383Z,3.42
2017-01-06T10:34:33.795Z,3.45
2017-01-06T10:35:33.805Z,3.63
2017-01-06T10:36:33.417Z,3.76
2017-01-06T10:37:33.431Z,3.7
2017-01-06T10:38:33.444Z,3.51
2017-01-06T10:39:33.859Z,3.26
2017-01-06T10:40:33.475Z,3.4
2017-01-06T10:41:33.088Z,3.73
2017-01-06T10:42:33.522Z,3.87
2017-01-06T10:43:33.523Z,4.01
2017-01-06T10:44:33.921Z,3.84
2017-01-06T10:45:33.144Z,3.58
2017-01-06T10:46:33.951Z,3.4
2017-01-06T10:47:33.169Z,3.55
2017-01-06T10:48:33.580Z,3.69
2017-01-06T10:49:33.592Z,3.74
2017-01-06T10:50:33.610Z,3.83
2017-01-06T10:51:33.217Z,2.97
2017-01-06T10:52:34.025Z,2.82
2017-01-06T10:53:34.054Z,2.97
2017-01-06T10:54:33.260Z,3.19
2017-01-06T10:55:33.672Z,3.14
2017-01-06T10:56:33.285Z,3.22
2017-01-06T10:57:33.696Z,3.31
2017-01-06T10:58:33.309Z,3.37
2017-01-06T10:59:33.318Z,3.55
2017-01-06T11:00:33.330Z,3.48
2017-01-06T11:01:34.145Z,3.5
2017-01-06T11:02:34.157Z,3.47
2017-01-06T11:03:33.779Z,3.29
2017-01-06T11:04:33.784Z,3.29
2017-01-06T11:05:33.795Z,3.28
2017-01-06T11:06:34.203Z,3.22
2017-01-06T11:07:33.917Z,3.18
2017-01-06T11:08:33.827Z,3.18
2017-01-06T11:09:33.444Z,3
2017-01-06T11:10:33.856Z,3.04
2017-01-06T11:11:33.467Z,2.95
2017-01-06T11:12:33.869Z,3.03
2017-01-06T11:13:34.283Z,2.87
2017-01-06T11:14:33.897Z,2.95
2017-01-06T11:15:33.925Z,2.82
2017-01-06T11:16:33.920Z,2.83
2017-01-06T11:17:33.933Z,2.79
2017-01-06T11:18:33.581Z,2.57
2017-01-06T11:19:33.553Z,2.1
2017-01-06T11:20:33.567Z,1.76
2017-01-06T11:21:34.379Z,1.3
2017-01-06T11:22:34.385Z,1.08
2017-01-06T11:23:34.398Z,0.86
2017-01-06T11:24:33.612Z,0.74
2017-01-06T11:25:33.620Z,0.74
2017-01-06T11:26:48.520Z,0.36
2017-01-06T11:27:34.441Z,0.34
2017-01-06T11:28:34.049Z,0.55
2017-01-06T11:29:33.659Z,0.22
2017-01-06T11:30:34.084Z,0.28
2017-01-06T11:31:34.489Z,0.08
2017-01-06T11:32:33.692Z,0.19
2017-01-06T11:33:33.704Z,0.23
2017-01-06T11:34:34.116Z,0.11
2017-01-06T11:35:34.523Z,0.05
2017-01-06T11:36:34.133Z,0.04
2017-01-06T11:37:34.145Z,0.18
2017-01-06T11:38:34.151Z,0.19
2017-01-06T11:39:34.578Z,0.16
2017-01-06T11:40:33.778Z,-0.25
2017-01-06T11:41:34.183Z,-0.29
2017-01-06T11:42:33.795Z,-0.36
2017-01-06T11:43:34.200Z,-0.5
2017-01-06T11:44:34.214Z,-0.68
2017-01-06T11:45:34.225Z,-0.85
2017-01-06T11:46:33.827Z,-0.75
2017-01-06T11:47:33.840Z,-0.71
2017-01-06T11:48:34.648Z,-0.56
2017-01-06T11:49:33.856Z,-0.68
2017-01-06T11:50:33.965Z,-0.52
2017-01-06T11:51:33.875Z,-0.86
2017-01-06T11:52:33.887Z,-1.04
2017-01-06T11:53:33.896Z,-0.9
2017-01-06T11:54:34.301Z,-0.78
2017-01-06T11:55:34.313Z,-0.65
2017-01-06T11:56:34.321Z,-0.59
2017-01-06T11:57:33.927Z,-0.65
2017-01-06T11:58:34.737Z,-0.59
2017-01-06T11:59:34.345Z,-0.47
2017-01-06T12:00:33.962Z,-0.57
2017-01-06T12:01:34.364Z,-0.5
2017-01-06T12:02:33.973Z,-0.44
2017-01-06T12:03:34.788Z,-0.29
2017-01-06T12:04:34.394Z,-0.26
2017-01-06T12:05:34.003Z,-0.28
2017-01-06T12:06:34.811Z,-0.35
2017-01-06T12:07:34.422Z,-0.28
2017-01-06T12:08:34.457Z,-0.64
2017-01-06T12:09:34.436Z,-0.78
2017-01-06T12:10:34.452Z,-0.9
2017-01-06T12:11:34.858Z,-0.85
2017-01-06T12:12:34.462Z,-0.96
2017-01-06T12:13:34.871Z,-1.11
2017-01-06T12:14:34.492Z,-1.2
2017-01-06T12:15:34.092Z,-1.23
2017-01-06T12:16:34.106Z,-1.19
2017-01-06T12:17:34.510Z,-1.07
2017-01-06T12:18:34.117Z,-0.94
2017-01-06T12:19:34.923Z,-1.01
2017-01-06T12:20:34.534Z,-1.22
2017-01-06T12:21:34.541Z,-1.19
2017-01-06T12:22:34.951Z,-1.14
2017-01-06T12:23:34.162Z,-1.17
2017-01-06T12:24:34.572Z,-1.26
2017-01-06T12:25:34.980Z,-1.09
2017-01-06T12:26:34.191Z,-1.14
2017-01-06T12:27:34.998Z,-1.01
2017-01-06T12:28:35.004Z,-1.14
2017-01-06T12:29:34.618Z,-1.19
2017-01-06T12:30:34.222Z,-1.22
2017-01-06T12:31:34.630Z,-1.47
2017-01-06T12:32:35.037Z,-1.77
2017-01-06T12:33:34.249Z,-1.74
2017-01-06T12:34:34.258Z,-1.66
2017-01-06T12:35:34.669Z,-1.53
2017-01-06T12:36:34.672Z,-1.72
2017-01-06T12:37:35.089Z,-1.74
2017-01-06T12:38:34.303Z,-1.69
2017-01-06T12:39:34.300Z,-1.58
2017-01-06T12:40:34.708Z,-1.74
2017-01-06T12:41:34.722Z,-1.61
2017-01-06T12:42:34.326Z,-1.62
2017-01-06T12:43:35.134Z,-1.69
2017-01-06T12:44:34.343Z,-1.65
2017-01-06T12:45:34.763Z,-1.64
2017-01-06T12:46:34.358Z,-1.87
2017-01-06T12:47:34.767Z,-1.97
2017-01-06T12:48:34.779Z,-1.97
2017-01-06T12:49:35.184Z,-1.94
2017-01-06T12:50:35.196Z,-1.82
2017-01-06T12:51:34.405Z,-1.76
2017-01-06T12:52:34.410Z,-1.65
2017-01-06T12:53:34.419Z,-1.83
2017-01-06T12:54:34.825Z,-1.82
2017-01-06T12:55:34.435Z,-1.94
2017-01-06T12:56:34.446Z,-1.98
2017-01-06T12:57:34.459Z,-1.79
2017-01-06T12:58:34.460Z,-1.68
2017-01-06T12:59:34.873Z,-1.68